Time;durP1;ratioP1;P1;durP2;ratioP2;P2;SDS_P1;SDS_P2;PMS_P1;PMS_P2;Temp;Humidity;BMP_temperature;BMP_pressure;BME280_temperature;BME280_humidity;BME280_pressure;Samples;Min_cycle;Max_cycle;Signal;HPM_P1;HPM_P2
2020/12/05 00:44:32;;;;;;;32.88;6.32;;;;;;;;;;5067189;27;20442;-60
2020/12/05 00:46:58;;;;;;;32.92;6.50;;;;;;;;;;5063635;27;20041;-57
2020/12/05 00:49:24;;;;;;;21.13;5.70;;;;;;;;;;5062261;28;20103;-57
2020/12/05 00:52:54;;;;;;;24.02;4.68;;;;;;;;;;5041344;28;20407;-58
2020/12/05 00:55:20;;;;;;;22.45;4.78;;;;;;;;;;5023557;28;20507;-57
2020/12/05 00:57:46;;;;;;;24.75;5.30;;;;;;;;;;5021862;28;20053;-60
2020/12/05 01:00:14;;;;;;;28.83;4.40;;;;;;;;;;5021822;28;20606;-57
2020/12/05 01:02:40;;;;;;;21.75;4.68;;;;;;;;;;5019169;28;20130;-59
2020/12/05 01:05:05;;;;;;;30.95;4.93;;;;;;;;;;5024871;28;20038;-62
2020/12/05 01:07:31;;;;;;;37.97;6.05;;;;;;;;;;5021718;28;20786;-62
2020/12/05 01:09:57;;;;;;;41.65;10.88;;;;;;;;;;5019656;28;20049;-57
2020/12/05 01:12:26;;;;;;;27.73;7.30;;;;;;;;;;5020860;28;20065;-58
2020/12/05 01:14:52;;;;;;;29.48;6.07;;;;;;;;;;5022066;28;20068;-58
2020/12/05 01:17:22;;;;;;;31.85;5.20;;;;;;;;;;5023242;28;20046;-61
2020/12/05 01:19:51;;;;;;;30.30;4.95;;;;;;;;;;5023186;28;20044;-58
2020/12/05 01:22:18;;;;;;;32.28;6.25;;;;;;;;;;5013866;28;22059;-58
2020/12/05 01:24:44;;;;;;;27.52;5.53;;;;;;;;;;5022143;28;20046;-59
2020/12/05 01:27:10;;;;;;;24.20;5.50;;;;;;;;;;5022828;28;20133;-58
2020/12/05 01:29:36;;;;;;;32.72;5.25;;;;;;;;;;5021507;28;20160;-59
2020/12/05 01:32:01;;;;;;;29.67;5.20;;;;;;;;;;5021265;28;20049;-61
2020/12/05 01:34:27;;;;;;;28.60;5.20;;;;;;;;;;5021492;28;20071;-57
2020/12/05 01:36:53;;;;;;;25.20;5.47;;;;;;;;;;5023324;28;20169;-58
2020/12/05 01:39:19;;;;;;;29.15;5.38;;;;;;;;;;5021630;28;20038;-59
2020/12/05 01:41:45;;;;;;;35.35;5.40;;;;;;;;;;5021354;28;20034;-58
2020/12/05 01:44:11;;;;;;;23.33;5.38;;;;;;;;;;5021543;28;20036;-56
2020/12/05 01:46:38;;;;;;;17.58;5.22;;;;;;;;;;5021147;28;20046;-56
2020/12/05 01:49:05;;;;;;;21.42;5.78;;;;;;;;;;5023144;28;20041;-57
2020/12/05 01:51:30;;;;;;;34.60;7.07;;;;;;;;;;5023529;28;20101;-57
2020/12/05 01:53:56;;;;;;;34.20;6.55;;;;;;;;;;5020967;28;20068;-56
2020/12/05 01:56:26;;;;;;;29.75;7.03;;;;;;;;;;5022866;28;20054;-59
2020/12/05 01:58:52;;;;;;;29.63;7.32;;;;;;;;;;5021130;28;20038;-57
2020/12/05 02:01:22;;;;;;;28.25;5.90;;;;;;;;;;5021014;28;20052;-58
2020/12/05 02:03:58;;;;;;;26.33;5.53;;;;;;;;;;5011653;28;20038;-57
2020/12/05 02:06:43;;;;;;;38.45;5.65;;;;;;;;;;5006437;28;20128;-55
2020/12/05 02:09:14;;;;;;;22.10;5.30;;;;;;;;;;5009013;28;20128;-57
2020/12/05 02:11:41;;;;;;;20.83;4.32;;;;;;;;;;5006899;28;20045;-56
2020/12/05 02:14:10;;;;;;;22.13;4.60;;;;;;;;;;5008209;28;20102;-57
2020/12/05 02:16:36;;;;;;;20.08;4.40;;;;;;;;;;5009012;28;20034;-56
2020/12/05 02:19:07;;;;;;;24.63;4.45;;;;;;;;;;5009815;28;20113;-56
2020/12/05 02:21:35;;;;;;;13.65;3.78;;;;;;;;;;5007726;28;20256;-57
2020/12/05 02:24:01;;;;;;;17.77;4.25;;;;;;;;;;5008547;28;20033;-56
2020/12/05 02:26:27;;;;;;;21.50;3.72;;;;;;;;;;5010017;28;20065;-57
2020/12/05 02:28:53;;;;;;;22.52;3.58;;;;;;;;;;5008525;28;20053;-57
2020/12/05 02:31:19;;;;;;;19.58;3.63;;;;;;;;;;5008994;28;20053;-58
2020/12/05 02:33:45;;;;;;;20.27;4.10;;;;;;;;;;5010158;28;20066;-58
2020/12/05 02:36:11;;;;;;;15.52;4.03;;;;;;;;;;5011371;28;20120;-59
2020/12/05 02:38:37;;;;;;;23.63;6.00;;;;;;;;;;5013646;28;20590;-57
2020/12/05 02:41:03;;;;;;;18.27;6.38;;;;;;;;;;5010395;28;20046;-57
2020/12/05 02:43:29;;;;;;;21.30;6.43;;;;;;;;;;5007330;28;20237;-61
2020/12/05 02:45:55;;;;;;;19.45;5.65;;;;;;;;;;5002578;28;20041;-57
2020/12/05 02:48:21;;;;;;;24.13;6.30;;;;;;;;;;5015659;28;20048;-56
2020/12/05 02:50:47;;;;;;;23.05;5.95;;;;;;;;;;5009635;28;20045;-57
2020/12/05 02:53:13;;;;;;;18.33;6.20;;;;;;;;;;5007613;28;20069;-56
2020/12/05 02:55:38;;;;;;;26.23;7.35;;;;;;;;;;5007146;28;20038;-57
2020/12/05 02:58:04;;;;;;;21.30;5.18;;;;;;;;;;5007786;28;20045;-57
2020/12/05 03:00:30;;;;;;;13.80;3.70;;;;;;;;;;5008145;28;20061;-57
2020/12/05 03:02:56;;;;;;;14.63;4.78;;;;;;;;;;5006967;28;20038;-57
2020/12/05 03:05:22;;;;;;;15.80;4.93;;;;;;;;;;5007821;28;20081;-57
2020/12/05 03:07:48;;;;;;;18.83;5.00;;;;;;;;;;5007693;28;20052;-57
2020/12/05 03:10:17;;;;;;;20.88;4.57;;;;;;;;;;5008588;28;20044;-57
2020/12/05 03:12:43;;;;;;;13.40;4.03;;;;;;;;;;5006128;28;20050;-56
2020/12/05 03:15:09;;;;;;;12.10;3.30;;;;;;;;;;5003992;28;20036;-57
2020/12/05 03:17:35;;;;;;;16.95;5.07;;;;;;;;;;5005129;28;20092;-55
2020/12/05 03:20:01;;;;;;;15.20;3.17;;;;;;;;;;5007738;28;20101;-56
2020/12/05 03:22:28;;;;;;;9.48;3.05;;;;;;;;;;5003724;28;20589;-56
2020/12/05 03:24:54;;;;;;;14.55;5.43;;;;;;;;;;5005187;28;20121;-57
2020/12/05 03:27:20;;;;;;;16.65;3.70;;;;;;;;;;5004804;28;20050;-57
2020/12/05 03:29:46;;;;;;;12.05;3.88;;;;;;;;;;5014259;28;20106;-56
2020/12/05 03:32:14;;;;;;;19.13;4.95;;;;;;;;;;5005377;28;20054;-57
2020/12/05 03:34:44;;;;;;;20.02;5.10;;;;;;;;;;5005564;28;20120;-57
2020/12/05 03:37:10;;;;;;;14.73;4.00;;;;;;;;;;5006159;28;20038;-57
2020/12/05 03:39:36;;;;;;;19.85;4.78;;;;;;;;;;5006705;28;20130;-57
2020/12/05 03:42:02;;;;;;;15.05;4.45;;;;;;;;;;5007044;28;20060;-56
2020/12/05 03:44:28;;;;;;;23.50;4.72;;;;;;;;;;5005471;28;20077;-57
2020/12/05 03:46:54;;;;;;;10.88;5.15;;;;;;;;;;5008159;28;20326;-59
2020/12/05 03:49:20;;;;;;;17.27;6.18;;;;;;;;;;5008228;28;20042;-58
2020/12/05 03:51:46;;;;;;;14.30;4.78;;;;;;;;;;5007091;28;20110;-57
2020/12/05 03:56:40;;;;;;;13.55;4.75;;;;;;;;;;5068111;27;20403;-56
2020/12/05 03:59:06;;;;;;;10.63;4.88;;;;;;;;;;5071590;28;20047;-57
2020/12/05 04:01:32;;;;;;;11.20;4.38;;;;;;;;;;5072393;27;20044;-58
2020/12/05 04:03:58;;;;;;;11.95;3.55;;;;;;;;;;5072171;28;20143;-58
2020/12/05 04:06:24;;;;;;;14.75;3.53;;;;;;;;;;5069293;27;20573;-55
2020/12/05 04:08:50;;;;;;;17.10;3.17;;;;;;;;;;5071544;28;20047;-56
2020/12/05 04:11:16;;;;;;;14.30;3.00;;;;;;;;;;5072781;27;20081;-57
2020/12/05 04:13:41;;;;;;;16.08;3.58;;;;;;;;;;5069450;28;20133;-56
2020/12/05 04:16:07;;;;;;;18.40;3.97;;;;;;;;;;5071127;28;20076;-54
2020/12/05 04:18:34;;;;;;;14.45;3.25;;;;;;;;;;5069580;28;20174;-57
2020/12/05 04:21:00;;;;;;;18.65;3.50;;;;;;;;;;5071976;27;20036;-57
2020/12/05 04:23:26;;;;;;;12.90;3.10;;;;;;;;;;5069039;27;20048;-56
2020/12/05 04:25:51;;;;;;;12.35;3.25;;;;;;;;;;5070239;28;20048;-55
2020/12/05 04:28:17;;;;;;;22.05;3.35;;;;;;;;;;5071359;28;20059;-56
2020/12/05 04:30:43;;;;;;;17.70;3.42;;;;;;;;;;5068068;28;20048;-57
2020/12/05 04:33:09;;;;;;;17.55;4.13;;;;;;;;;;5070996;28;20456;-56
2020/12/05 04:35:35;;;;;;;14.93;3.50;;;;;;;;;;5070732;27;22280;-56
2020/12/05 04:38:01;;;;;;;13.05;3.33;;;;;;;;;;5071268;27;20025;-57
2020/12/05 04:40:27;;;;;;;14.45;3.85;;;;;;;;;;5069452;27;20044;-57
2020/12/05 04:42:53;;;;;;;13.05;4.88;;;;;;;;;;5073215;28;20419;-57
2020/12/05 04:45:18;;;;;;;15.35;3.75;;;;;;;;;;5070027;27;20040;-57
2020/12/05 04:47:45;;;;;;;15.00;3.55;;;;;;;;;;5071810;28;20071;-57
2020/12/05 04:50:12;;;;;;;10.95;3.40;;;;;;;;;;5071451;27;20098;-57
2020/12/05 04:52:41;;;;;;;15.95;3.33;;;;;;;;;;5070748;27;20048;-56
2020/12/05 04:55:07;;;;;;;11.07;2.72;;;;;;;;;;5070463;27;20048;-56
2020/12/05 04:57:44;;;;;;;14.45;3.20;;;;;;;;;;5070394;28;20040;-57
2020/12/05 05:00:10;;;;;;;16.48;3.25;;;;;;;;;;5070907;28;20044;-58
2020/12/05 05:02:42;;;;;;;9.85;2.95;;;;;;;;;;5071256;27;20033;-57
2020/12/05 05:05:09;;;;;;;9.00;3.10;;;;;;;;;;5070375;27;20044;-57
2020/12/05 05:07:36;;;;;;;12.73;3.28;;;;;;;;;;5059144;28;20047;-57
2020/12/05 05:10:12;;;;;;;15.70;3.92;;;;;;;;;;5056766;28;20119;-56
2020/12/05 05:12:38;;;;;;;6.20;2.72;;;;;;;;;;5056661;28;20057;-57
2020/12/05 05:15:30;;;;;;;20.38;4.05;;;;;;;;;;5057823;28;20076;-57
2020/12/05 05:17:56;;;;;;;13.25;3.15;;;;;;;;;;5057226;28;20041;-57
2020/12/05 05:20:23;;;;;;;23.33;3.25;;;;;;;;;;5056762;28;20385;-57
2020/12/05 05:22:53;;;;;;;11.75;3.65;;;;;;;;;;5057342;28;20548;-57
2020/12/05 05:25:21;;;;;;;9.65;2.92;;;;;;;;;;5059207;28;20071;-56
2020/12/05 05:27:59;;;;;;;20.83;4.10;;;;;;;;;;5058828;28;20088;-57
2020/12/05 05:30:25;;;;;;;11.55;3.00;;;;;;;;;;5057267;28;20037;-58
2020/12/05 05:33:03;;;;;;;7.22;2.42;;;;;;;;;;5055068;28;20429;-57
2020/12/05 05:35:35;;;;;;;7.20;2.30;;;;;;;;;;5058201;28;20106;-57
2020/12/05 05:38:02;;;;;;;13.35;2.60;;;;;;;;;;5054650;28;20041;-57
2020/12/05 05:40:28;;;;;;;9.40;2.47;;;;;;;;;;5073418;28;20041;-57
2020/12/05 05:42:54;;;;;;;11.55;2.20;;;;;;;;;;5056102;28;20055;-57
2020/12/05 05:45:27;;;;;;;8.60;2.97;;;;;;;;;;5055747;28;20052;-57
2020/12/05 05:47:59;;;;;;;7.95;2.58;;;;;;;;;;5055710;28;20041;-57
2020/12/05 05:50:32;;;;;;;10.43;1.93;;;;;;;;;;5057936;28;20058;-57
2020/12/05 05:53:02;;;;;;;11.32;2.25;;;;;;;;;;5056127;28;20487;-56
2020/12/05 05:55:40;;;;;;;7.32;2.10;;;;;;;;;;5052546;28;20053;-55
2020/12/05 05:58:07;;;;;;;11.20;1.75;;;;;;;;;;5056596;28;20044;-56
2020/12/05 06:00:37;;;;;;;12.75;2.38;;;;;;;;;;5056629;28;20040;-56
2020/12/05 06:03:22;;;;;;;6.80;2.13;;;;;;;;;;5056640;28;20106;-56
2020/12/05 06:05:52;;;;;;;10.63;2.10;;;;;;;;;;5056382;28;20044;-54
2020/12/05 06:08:25;;;;;;;8.57;2.78;;;;;;;;;;5056509;28;20048;-56
2020/12/05 06:10:59;;;;;;;5.57;1.90;;;;;;;;;;5041242;28;20378;-57
2020/12/05 06:13:26;;;;;;;10.50;1.98;;;;;;;;;;5058033;28;20041;-57
2020/12/05 06:15:52;;;;;;;7.28;1.98;;;;;;;;;;5057712;28;22242;-56
2020/12/05 06:18:19;;;;;;;7.43;1.90;;;;;;;;;;5054499;28;20114;-56
2020/12/05 06:20:45;;;;;;;8.52;1.83;;;;;;;;;;5055474;28;20104;-57
2020/12/05 06:23:18;;;;;;;6.07;2.20;;;;;;;;;;5053921;28;20093;-56
2020/12/05 06:25:49;;;;;;;8.55;1.70;;;;;;;;;;5054277;28;20040;-54
2020/12/05 06:28:16;;;;;;;7.88;1.80;;;;;;;;;;5057156;28;20957;-55
2020/12/05 06:30:45;;;;;;;7.63;1.45;;;;;;;;;;5056043;28;20045;-56
2020/12/05 06:33:11;;;;;;;6.28;1.42;;;;;;;;;;5055753;28;20131;-56
2020/12/05 06:35:37;;;;;;;10.52;1.70;;;;;;;;;;5055967;28;20390;-56
2020/12/05 06:38:03;;;;;;;5.68;1.50;;;;;;;;;;5076162;28;20755;-55
2020/12/05 06:40:41;;;;;;;6.35;1.60;;;;;;;;;;5059177;28;20033;-56
2020/12/05 06:43:11;;;;;;;4.78;1.75;;;;;;;;;;5073025;28;20067;-56
2020/12/05 06:45:37;;;;;;;3.88;1.40;;;;;;;;;;5056463;28;20045;-56
2020/12/05 06:48:09;;;;;;;8.57;1.42;;;;;;;;;;5057287;28;20057;-56
2020/12/05 06:50:36;;;;;;;4.68;1.35;;;;;;;;;;5055688;28;20037;-55
2020/12/05 06:53:01;;;;;;;7.90;1.50;;;;;;;;;;5055441;28;20096;-56
2020/12/05 06:55:32;;;;;;;5.00;1.30;;;;;;;;;;5054778;28;20076;-56
2020/12/05 06:58:02;;;;;;;3.83;1.20;;;;;;;;;;5054750;28;20049;-56
2020/12/05 07:00:30;;;;;;;7.80;2.30;;;;;;;;;;5052690;28;20159;-56
2020/12/05 07:03:10;;;;;;;5.47;2.40;;;;;;;;;;5055283;28;20037;-56
2020/12/05 07:05:37;;;;;;;6.78;2.08;;;;;;;;;;5054604;28;20047;-57
2020/12/05 07:08:23;;;;;;;5.90;1.52;;;;;;;;;;5054833;28;21141;-57
2020/12/05 07:10:59;;;;;;;3.50;1.05;;;;;;;;;;5053046;28;20044;-57
2020/12/05 07:13:26;;;;;;;3.38;1.20;;;;;;;;;;5069516;28;20051;-57
2020/12/05 07:16:08;;;;;;;4.95;1.08;;;;;;;;;;5054905;28;20049;-56
2020/12/05 07:18:34;;;;;;;4.15;1.00;;;;;;;;;;5053964;28;20389;-55
2020/12/05 07:20:59;;;;;;;4.78;0.98;;;;;;;;;;5053634;28;20043;-56
2020/12/05 07:23:25;;;;;;;6.47;0.90;;;;;;;;;;5053475;28;20058;-57
2020/12/05 07:25:51;;;;;;;8.63;1.20;;;;;;;;;;5052431;28;20036;-56
2020/12/05 07:28:17;;;;;;;3.78;1.00;;;;;;;;;;5056777;28;20048;-57
2020/12/05 07:30:43;;;;;;;2.80;0.90;;;;;;;;;;5042332;28;20044;-56
2020/12/05 07:33:10;;;;;;;5.55;0.95;;;;;;;;;;5035517;28;20041;-56
2020/12/05 07:35:36;;;;;;;2.88;1.00;;;;;;;;;;5034333;28;20100;-56
2020/12/05 07:38:10;;;;;;;6.15;0.98;;;;;;;;;;5034598;28;20060;-56
2020/12/05 07:40:36;;;;;;;3.20;0.98;;;;;;;;;;5033459;28;20042;-57
2020/12/05 07:43:02;;;;;;;5.45;0.98;;;;;;;;;;5047271;28;20056;-56
2020/12/05 07:45:30;;;;;;;2.67;0.90;;;;;;;;;;5053256;28;20055;-56
2020/12/05 07:47:56;;;;;;;2.70;0.80;;;;;;;;;;5053872;28;20072;-57
2020/12/05 07:50:21;;;;;;;4.35;0.80;;;;;;;;;;5053969;28;20041;-55
2020/12/05 07:52:47;;;;;;;3.80;0.85;;;;;;;;;;5053867;28;20041;-55
2020/12/05 07:55:13;;;;;;;4.53;0.93;;;;;;;;;;5055034;28;20909;-57
2020/12/05 07:57:50;;;;;;;3.20;0.85;;;;;;;;;;5055569;28;20428;-56
2020/12/05 08:00:15;;;;;;;3.63;1.08;;;;;;;;;;5056304;28;20120;-56
2020/12/05 08:02:46;;;;;;;5.70;1.00;;;;;;;;;;5054686;28;20122;-57
2020/12/05 08:05:30;;;;;;;9.77;1.05;;;;;;;;;;5055360;28;20088;-57
2020/12/05 08:07:58;;;;;;;2.70;0.73;;;;;;;;;;5055268;28;20048;-56
2020/12/05 08:10:33;;;;;;;4.78;1.10;;;;;;;;;;5054032;28;20061;-53
2020/12/05 08:13:18;;;;;;;6.57;1.35;;;;;;;;;;5042147;28;20048;-56
2020/12/05 08:15:44;;;;;;;6.45;1.10;;;;;;;;;;5068811;28;20155;-57
2020/12/05 08:18:10;;;;;;;6.45;1.10;;;;;;;;;;5054527;28;20049;-56
2020/12/05 08:20:43;;;;;;;9.68;1.45;;;;;;;;;;5055417;28;20067;-55
2020/12/05 08:23:19;;;;;;;4.30;1.17;;;;;;;;;;5055165;28;20060;-56
2020/12/05 08:25:46;;;;;;;5.40;1.13;;;;;;;;;;5054064;28;20082;-56
2020/12/05 08:28:15;;;;;;;4.57;1.20;;;;;;;;;;5055103;28;20038;-55
2020/12/05 08:30:41;;;;;;;3.95;1.10;;;;;;;;;;5055058;28;22025;-56
2020/12/05 08:33:07;;;;;;;4.38;0.93;;;;;;;;;;5053762;28;20041;-56
2020/12/05 08:35:33;;;;;;;5.70;1.15;;;;;;;;;;5054122;28;20104;-56
2020/12/05 08:38:01;;;;;;;3.85;0.90;;;;;;;;;;5054101;28;20178;-56
2020/12/05 08:40:27;;;;;;;4.43;0.80;;;;;;;;;;5054999;28;20060;-56
2020/12/05 08:42:53;;;;;;;4.18;1.30;;;;;;;;;;5055546;28;20070;-55
2020/12/05 08:45:20;;;;;;;2.38;0.75;;;;;;;;;;5057032;28;20037;-56
2020/12/05 08:47:46;;;;;;;4.88;1.00;;;;;;;;;;5059655;28;20036;-57
2020/12/05 08:50:22;;;;;;;3.92;1.20;;;;;;;;;;5058624;28;20078;-56
2020/12/05 08:52:51;;;;;;;4.80;1.00;;;;;;;;;;5057026;28;20021;-57
2020/12/05 08:58:12;;;;;;;3.42;0.77;;;;;;;;;;5064351;27;20416;-59
2020/12/05 09:00:39;;;;;;;3.22;0.80;;;;;;;;;;5036648;28;20045;-55
2020/12/05 09:03:24;;;;;;;2.60;0.85;;;;;;;;;;5035534;28;20045;-56
2020/12/05 09:05:51;;;;;;;2.63;1.00;;;;;;;;;;5046513;28;20036;-57
2020/12/05 09:08:21;;;;;;;3.58;0.70;;;;;;;;;;5038684;28;20037;-57
2020/12/05 09:10:48;;;;;;;2.90;0.77;;;;;;;;;;5034443;28;20104;-57
2020/12/05 09:13:14;;;;;;;2.53;0.80;;;;;;;;;;5034673;28;20045;-58
2020/12/05 09:18:59;;;;;;;4.03;0.95;;;;;;;;;;5056415;27;20503;-57
2020/12/05 09:21:46;;;;;;;5.63;0.80;;;;;;;;;;4975276;28;20394;-57
2020/12/05 09:24:12;;;;;;;3.45;0.90;;;;;;;;;;4976788;28;20041;-57
2020/12/05 09:26:50;;;;;;;7.95;1.00;;;;;;;;;;4978033;28;20055;-56
2020/12/05 09:29:16;;;;;;;4.45;0.90;;;;;;;;;;4978665;28;20473;-56
2020/12/05 09:31:48;;;;;;;6.63;1.05;;;;;;;;;;4975768;28;20058;-56
2020/12/05 09:34:14;;;;;;;4.40;1.00;;;;;;;;;;4976523;28;20051;-58
2020/12/05 09:36:40;;;;;;;3.88;1.00;;;;;;;;;;4975719;28;20035;-57
2020/12/05 09:39:06;;;;;;;6.53;1.00;;;;;;;;;;4978143;28;20061;-56
2020/12/05 09:41:35;;;;;;;3.50;0.82;;;;;;;;;;4976984;28;20042;-57
2020/12/05 09:44:01;;;;;;;1.77;0.60;;;;;;;;;;4978838;28;20137;-57
2020/12/05 09:46:27;;;;;;;2.60;0.60;;;;;;;;;;4976265;28;20070;-60
2020/12/05 09:48:53;;;;;;;3.35;0.63;;;;;;;;;;4976698;28;20046;-58
2020/12/05 09:51:18;;;;;;;1.92;0.70;;;;;;;;;;4976727;28;20065;-59
2020/12/05 09:53:44;;;;;;;1.88;0.55;;;;;;;;;;4977650;28;20045;-57
2020/12/05 10:03:32;;;;;;;1.95;0.50;;;;;;;;;;5066431;27;20414;-56
2020/12/05 10:07:22;;;;;;;1.50;0.60;;;;;;;;;;5020622;28;20401;-57
2020/12/05 10:09:47;;;;;;;2.45;0.60;;;;;;;;;;5025602;28;20045;-59
2020/12/05 10:12:14;;;;;;;5.45;0.60;;;;;;;;;;5023160;28;20038;-55
2020/12/05 10:14:40;;;;;;;3.75;0.52;;;;;;;;;;5023099;28;20101;-55
2020/12/05 10:17:06;;;;;;;1.88;0.60;;;;;;;;;;5023883;28;20463;-55
2020/12/05 10:19:31;;;;;;;1.52;0.50;;;;;;;;;;5047475;28;20071;-58
2020/12/05 10:21:57;;;;;;;1.35;0.50;;;;;;;;;;5024146;28;20045;-55
2020/12/05 10:24:23;;;;;;;4.35;0.60;;;;;;;;;;5025182;28;20042;-55
2020/12/05 10:26:50;;;;;;;1.77;0.50;;;;;;;;;;5023496;28;20136;-56
2020/12/05 10:29:16;;;;;;;1.67;0.50;;;;;;;;;;5025946;28;20135;-56
2020/12/05 10:31:45;;;;;;;3.35;0.68;;;;;;;;;;5023088;28;20052;-57
2020/12/05 10:34:11;;;;;;;1.67;0.60;;;;;;;;;;5024179;28;20041;-59
2020/12/05 10:36:37;;;;;;;2.17;0.60;;;;;;;;;;5022992;28;20413;-56
2020/12/05 10:39:05;;;;;;;1.40;0.47;;;;;;;;;;5024893;28;20454;-57
2020/12/05 10:41:30;;;;;;;1.67;0.50;;;;;;;;;;5055741;28;20107;-57
2020/12/05 10:43:56;;;;;;;1.77;0.55;;;;;;;;;;5023021;28;20045;-59
2020/12/05 10:46:22;;;;;;;2.38;0.60;;;;;;;;;;5021617;28;20111;-57
2020/12/05 10:48:48;;;;;;;2.88;0.60;;;;;;;;;;5024651;28;20136;-56
2020/12/05 10:51:14;;;;;;;1.42;0.50;;;;;;;;;;5022979;28;22321;-57
2020/12/05 10:53:40;;;;;;;1.77;0.50;;;;;;;;;;5023591;28;20041;-56
2020/12/05 10:56:06;;;;;;;3.20;0.70;;;;;;;;;;5022659;28;20049;-56
2020/12/05 10:58:32;;;;;;;1.52;0.47;;;;;;;;;;5023696;28;20092;-56
2020/12/05 11:00:57;;;;;;;1.90;0.60;;;;;;;;;;5023883;28;20109;-58
2020/12/05 11:03:23;;;;;;;1.30;0.40;;;;;;;;;;5022406;28;20041;-56
2020/12/05 11:05:49;;;;;;;3.50;0.50;;;;;;;;;;5023367;28;20135;-56
2020/12/05 11:08:15;;;;;;;3.55;0.60;;;;;;;;;;5024358;28;20042;-56
2020/12/05 11:10:41;;;;;;;3.20;0.65;;;;;;;;;;5024352;28;20808;-54
2020/12/05 11:13:07;;;;;;;3.33;0.60;;;;;;;;;;5024291;28;20072;-56
2020/12/05 11:15:33;;;;;;;2.58;0.60;;;;;;;;;;5023278;28;20104;-56
2020/12/05 11:17:58;;;;;;;3.33;0.60;;;;;;;;;;5014782;28;20097;-55
2020/12/05 11:20:24;;;;;;;2.30;0.55;;;;;;;;;;5011089;28;20124;-58
2020/12/05 11:22:50;;;;;;;1.40;0.50;;;;;;;;;;5010396;28;20057;-57
2020/12/05 11:25:17;;;;;;;4.43;0.70;;;;;;;;;;5010431;28;20042;-56
2020/12/05 11:27:42;;;;;;;3.88;0.50;;;;;;;;;;5011251;28;20030;-56
2020/12/05 11:30:08;;;;;;;1.63;0.50;;;;;;;;;;5010183;28;20153;-56
2020/12/05 11:32:37;;;;;;;3.28;0.60;;;;;;;;;;5010315;28;20165;-59
2020/12/05 11:35:03;;;;;;;1.75;0.57;;;;;;;;;;5009259;28;20045;-56
2020/12/05 11:37:29;;;;;;;1.52;0.50;;;;;;;;;;5008137;28;20050;-57
2020/12/05 11:39:55;;;;;;;4.00;0.65;;;;;;;;;;5010153;28;20038;-58
2020/12/05 11:42:21;;;;;;;2.05;0.60;;;;;;;;;;5009243;28;20038;-57
2020/12/05 11:44:47;;;;;;;2.92;0.60;;;;;;;;;;5008679;28;20052;-57
2020/12/05 11:47:13;;;;;;;2.38;0.60;;;;;;;;;;5009923;28;20050;-58
2020/12/05 11:49:38;;;;;;;5.40;0.60;;;;;;;;;;5009195;28;20062;-56
2020/12/05 11:52:04;;;;;;;3.97;0.70;;;;;;;;;;5009755;28;20807;-58
2020/12/05 11:54:30;;;;;;;2.08;0.70;;;;;;;;;;5010608;28;20115;-58
2020/12/05 11:56:56;;;;;;;2.00;0.60;;;;;;;;;;5040463;28;20042;-55
2020/12/05 11:59:22;;;;;;;1.92;0.60;;;;;;;;;;5008182;28;20060;-57
2020/12/05 12:01:48;;;;;;;2.55;0.60;;;;;;;;;;5008175;28;20643;-56
2020/12/05 12:04:13;;;;;;;2.00;0.50;;;;;;;;;;5009578;28;20327;-56
2020/12/05 12:06:39;;;;;;;3.90;0.70;;;;;;;;;;5010317;28;20157;-59
2020/12/05 12:09:07;;;;;;;1.85;0.57;;;;;;;;;;5011203;28;20065;-58
2020/12/05 12:11:33;;;;;;;2.42;0.60;;;;;;;;;;5007789;28;20072;-57
2020/12/05 12:13:59;;;;;;;2.38;0.50;;;;;;;;;;5007869;28;20030;-57
2020/12/05 12:16:24;;;;;;;1.45;0.50;;;;;;;;;;5008717;28;20046;-57
2020/12/05 12:18:53;;;;;;;1.95;0.63;;;;;;;;;;5008952;28;20732;-57
2020/12/05 12:21:22;;;;;;;2.33;0.70;;;;;;;;;;5007893;28;20153;-58
2020/12/05 12:23:48;;;;;;;3.67;0.50;;;;;;;;;;5009329;28;20034;-57
2020/12/05 12:26:14;;;;;;;1.48;0.60;;;;;;;;;;5010108;28;20122;-57
2020/12/05 12:28:40;;;;;;;9.45;0.60;;;;;;;;;;5008838;28;20053;-57
2020/12/05 12:31:06;;;;;;;2.83;0.63;;;;;;;;;;5008132;28;20102;-59
2020/12/05 12:33:32;;;;;;;3.13;0.60;;;;;;;;;;5007778;28;20038;-57
2020/12/05 12:35:57;;;;;;;2.05;0.60;;;;;;;;;;5007985;28;20065;-59
2020/12/05 12:38:23;;;;;;;2.17;0.57;;;;;;;;;;5009299;28;20033;-55
2020/12/05 12:40:49;;;;;;;2.70;0.70;;;;;;;;;;5008699;28;20041;-57
2020/12/05 12:43:15;;;;;;;2.53;0.60;;;;;;;;;;5009084;28;20046;-62
2020/12/05 12:45:43;;;;;;;3.83;0.80;;;;;;;;;;5008762;28;20058;-57
2020/12/05 12:50:35;;;;;;;3.42;0.70;;;;;;;;;;5006387;28;20038;-59
2020/12/05 12:53:00;;;;;;;3.10;0.80;;;;;;;;;;5007429;28;20074;-56
2020/12/05 12:55:26;;;;;;;3.63;0.70;;;;;;;;;;5008573;28;20049;-56
2020/12/05 12:57:54;;;;;;;1.92;0.57;;;;;;;;;;5008037;28;20041;-59
2020/12/05 13:00:20;;;;;;;7.72;0.93;;;;;;;;;;5009386;28;20034;-57
2020/12/05 13:02:46;;;;;;;2.55;0.70;;;;;;;;;;5008186;28;20043;-57
2020/12/05 13:05:11;;;;;;;4.20;0.70;;;;;;;;;;5009503;28;20109;-59
2020/12/05 13:07:37;;;;;;;3.75;0.60;;;;;;;;;;5008462;28;20101;-57
2020/12/05 13:10:03;;;;;;;2.22;0.65;;;;;;;;;;5008369;28;20042;-59
2020/12/05 13:12:29;;;;;;;4.82;0.85;;;;;;;;;;5007164;28;20117;-56
2020/12/05 13:14:55;;;;;;;4.75;0.85;;;;;;;;;;5007352;28;20050;-56
2020/12/05 13:17:21;;;;;;;3.63;0.70;;;;;;;;;;5008192;28;20358;-56
2020/12/05 13:19:47;;;;;;;2.42;0.68;;;;;;;;;;5007428;28;20760;-56
2020/12/05 13:22:12;;;;;;;10.93;1.20;;;;;;;;;;5007322;28;20042;-57
2020/12/05 13:24:38;;;;;;;5.97;0.90;;;;;;;;;;5007128;28;20160;-56
2020/12/05 13:27:04;;;;;;;4.80;1.00;;;;;;;;;;5007820;28;20057;-55
2020/12/05 13:29:30;;;;;;;23.98;1.67;;;;;;;;;;5006148;28;20040;-56
2020/12/05 13:31:56;;;;;;;15.95;1.10;;;;;;;;;;5007786;28;20046;-56
2020/12/05 13:34:22;;;;;;;11.55;0.90;;;;;;;;;;5008041;28;20153;-56
2020/12/05 13:36:47;;;;;;;6.45;0.90;;;;;;;;;;5009014;28;20080;-57
2020/12/05 13:39:13;;;;;;;7.68;1.15;;;;;;;;;;5008138;28;20037;-57
2020/12/05 13:41:39;;;;;;;4.55;0.85;;;;;;;;;;5007407;28;20101;-56
2020/12/05 13:44:05;;;;;;;16.30;1.38;;;;;;;;;;5009449;28;20054;-55
2020/12/05 13:46:31;;;;;;;3.78;0.85;;;;;;;;;;5007928;28;20162;-54
2020/12/05 13:48:58;;;;;;;5.97;1.00;;;;;;;;;;5008308;28;20059;-56
2020/12/05 13:51:27;;;;;;;10.18;1.60;;;;;;;;;;5005629;28;20112;-56
2020/12/05 13:53:53;;;;;;;8.68;0.98;;;;;;;;;;5007975;28;20494;-57
2020/12/05 13:56:19;;;;;;;3.17;0.82;;;;;;;;;;5005919;28;20053;-54
2020/12/05 13:58:45;;;;;;;3.75;0.80;;;;;;;;;;5006388;28;20049;-56
2020/12/05 14:01:11;;;;;;;5.25;0.70;;;;;;;;;;5006260;28;20056;-55
2020/12/05 14:03:37;;;;;;;6.38;0.70;;;;;;;;;;5007778;28;20097;-56
2020/12/05 14:06:03;;;;;;;3.85;0.60;;;;;;;;;;5007560;28;20116;-57
2020/12/05 14:08:29;;;;;;;2.70;0.82;;;;;;;;;;5006590;28;20516;-55
2020/12/05 14:10:55;;;;;;;4.30;0.70;;;;;;;;;;5006952;28;20042;-57
2020/12/05 14:13:21;;;;;;;2.67;0.60;;;;;;;;;;5006412;28;20263;-57
2020/12/05 14:15:46;;;;;;;3.13;0.80;;;;;;;;;;5006355;28;20050;-56
2020/12/05 14:18:12;;;;;;;4.47;0.70;;;;;;;;;;5007348;28;20042;-56
2020/12/05 14:20:38;;;;;;;3.10;0.70;;;;;;;;;;5006938;28;20052;-53
2020/12/05 14:23:04;;;;;;;3.78;0.80;;;;;;;;;;5007780;28;20088;-56
2020/12/05 14:25:30;;;;;;;3.13;0.70;;;;;;;;;;5006515;28;20038;-56
2020/12/05 14:27:56;;;;;;;6.72;0.70;;;;;;;;;;5007198;28;20042;-55
2020/12/05 14:30:21;;;;;;;2.47;0.80;;;;;;;;;;5007444;28;20034;-56
2020/12/05 14:32:49;;;;;;;2.90;0.70;;;;;;;;;;5007292;28;20045;-55
2020/12/05 14:35:15;;;;;;;6.40;0.75;;;;;;;;;;5008805;28;20038;-56
2020/12/05 14:37:41;;;;;;;3.30;0.85;;;;;;;;;;5007790;28;20050;-56
2020/12/05 14:40:07;;;;;;;11.30;0.95;;;;;;;;;;5006342;28;20105;-56
2020/12/05 14:42:32;;;;;;;4.13;0.63;;;;;;;;;;5006990;28;20046;-56
2020/12/05 14:45:00;;;;;;;3.63;0.80;;;;;;;;;;5006724;28;20046;-55
2020/12/05 14:47:30;;;;;;;5.35;0.98;;;;;;;;;;5007110;28;20049;-56
2020/12/05 14:49:56;;;;;;;4.57;0.93;;;;;;;;;;5008953;28;20073;-59
2020/12/05 14:52:24;;;;;;;5.30;0.80;;;;;;;;;;5003672;28;20033;-55
2020/12/05 14:54:50;;;;;;;6.10;1.00;;;;;;;;;;5006866;28;20096;-56
2020/12/05 14:57:16;;;;;;;4.47;1.10;;;;;;;;;;5008973;28;20042;-56
2020/12/05 14:59:41;;;;;;;10.50;1.10;;;;;;;;;;5010485;28;20045;-56
2020/12/05 15:02:07;;;;;;;6.93;1.00;;;;;;;;;;5010611;28;20108;-56
2020/12/05 15:04:33;;;;;;;7.68;1.02;;;;;;;;;;5009294;28;20034;-57
2020/12/05 15:06:59;;;;;;;8.60;1.35;;;;;;;;;;5010162;28;20053;-56
2020/12/05 15:09:25;;;;;;;9.65;1.70;;;;;;;;;;5009915;28;20046;-57
2020/12/05 15:11:51;;;;;;;8.35;1.33;;;;;;;;;;5008082;28;20056;-57
2020/12/05 15:14:16;;;;;;;9.23;1.27;;;;;;;;;;5009503;28;20038;-56
2020/12/05 15:16:42;;;;;;;7.75;0.90;;;;;;;;;;5009575;28;20074;-55
2020/12/05 15:19:08;;;;;;;8.32;1.23;;;;;;;;;;5008794;28;20041;-56
2020/12/05 15:21:34;;;;;;;11.65;1.23;;;;;;;;;;5008773;28;20080;-56
2020/12/05 15:24:00;;;;;;;3.17;0.90;;;;;;;;;;5009705;28;20046;-56
2020/12/05 15:26:26;;;;;;;7.70;1.10;;;;;;;;;;5007803;28;20128;-56
2020/12/05 15:28:52;;;;;;;8.55;1.20;;;;;;;;;;5009796;28;20134;-56
2020/12/05 15:31:17;;;;;;;7.75;1.35;;;;;;;;;;5007829;28;20045;-56
2020/12/05 15:33:43;;;;;;;8.65;1.27;;;;;;;;;;5010231;28;20033;-56
2020/12/05 15:36:13;;;;;;;16.08;1.40;;;;;;;;;;5008629;28;20411;-56
2020/12/05 15:38:39;;;;;;;11.88;2.15;;;;;;;;;;5004861;28;20068;-55
2020/12/05 15:41:08;;;;;;;25.92;2.70;;;;;;;;;;5009067;28;20756;-56
2020/12/05 15:43:34;;;;;;;17.63;1.77;;;;;;;;;;5008468;28;20131;-56